createdAt,value
2023-03-31T00:00:01.768Z,0
2023-03-31T00:05:01.929Z,0
2023-03-31T00:10:16.324Z,0
2023-03-31T00:15:01.814Z,0.025
2023-03-31T00:20:01.795Z,0.11
2023-03-31T00:25:01.813Z,0
2023-03-31T00:30:01.736Z,0
2023-03-31T00:35:01.737Z,0
2023-03-31T00:40:01.827Z,0.053
2023-03-31T00:45:01.792Z,0.111
2023-03-31T00:50:01.830Z,0.111
2023-03-31T00:55:01.798Z,0.111
2023-03-31T01:00:01.851Z,0.113
2023-03-31T01:05:01.760Z,0.111
2023-03-31T01:10:01.753Z,0.155
2023-03-31T01:15:01.783Z,0.064
2023-03-31T01:20:01.857Z,0
2023-03-31T01:25:03.275Z,0
2023-03-31T01:30:01.824Z,0
2023-03-31T01:35:01.777Z,0
2023-03-31T01:40:01.732Z,0
2023-03-31T01:45:01.897Z,0
2023-03-31T01:50:01.875Z,0
2023-03-31T01:55:01.795Z,0
2023-03-31T02:00:01.806Z,0
2023-03-31T02:05:01.884Z,0
2023-03-31T02:10:01.826Z,0.052000000000000005
2023-03-31T02:15:01.820Z,0.011
2023-03-31T02:20:01.896Z,0
2023-03-31T02:25:01.955Z,0
2023-03-31T02:30:01.829Z,0
2023-03-31T02:35:01.844Z,0.058
2023-03-31T02:40:01.913Z,0.107
2023-03-31T02:45:01.877Z,0.149
2023-03-31T02:50:01.997Z,0.148
2023-03-31T02:55:01.930Z,0.17300000000000001
2023-03-31T03:00:01.834Z,0.127
2023-03-31T03:05:01.854Z,0.124
2023-03-31T03:10:01.868Z,0.125
2023-03-31T03:15:01.851Z,0.025
2023-03-31T03:20:02.008Z,0.114
2023-03-31T03:25:01.936Z,0.111
2023-03-31T03:30:01.911Z,0.161
2023-03-31T03:35:01.900Z,0.159
2023-03-31T03:40:01.895Z,0.163
2023-03-31T03:45:02.001Z,0.121
2023-03-31T03:50:01.907Z,0.113
2023-03-31T03:55:02.011Z,0.11
2023-03-31T04:00:01.910Z,0.109
2023-03-31T04:05:01.915Z,0.105
2023-03-31T04:10:01.921Z,0.111
2023-03-31T04:15:01.906Z,0.153
2023-03-31T04:20:01.950Z,0.162
2023-03-31T04:25:02.001Z,0.042
2023-03-31T04:30:01.965Z,0
2023-03-31T04:35:01.947Z,0.012
2023-03-31T04:40:01.928Z,0
2023-03-31T04:45:01.951Z,0.089
2023-03-31T04:50:02.023Z,0.108
2023-03-31T04:55:02.138Z,0.089
2023-03-31T05:00:02.122Z,0.298
2023-03-31T05:05:02.163Z,0.10300000000000001
2023-03-31T05:10:02.130Z,0.063
2023-03-31T05:15:02.118Z,0.038
2023-03-31T05:20:02.306Z,0.011
2023-03-31T05:25:02.438Z,0.043000000000000003
2023-03-31T05:30:02.088Z,1.7590000000000001
2023-03-31T05:35:02.077Z,38.33
2023-03-31T05:40:02.464Z,46.884
2023-03-31T05:45:02.057Z,117.711
2023-03-31T05:50:02.137Z,242.692
2023-03-31T05:55:02.224Z,252.58100000000002
2023-03-31T06:00:02.058Z,194.332
2023-03-31T06:05:02.011Z,167.721
2023-03-31T06:10:02.016Z,162.269
2023-03-31T06:15:01.980Z,139.497
2023-03-31T06:20:05.822Z,164.00900000000001
2023-03-31T06:25:02.096Z,332.254
2023-03-31T06:30:01.955Z,360.249
2023-03-31T06:35:01.996Z,314.137
2023-03-31T06:40:02.207Z,318.436
2023-03-31T06:45:02.077Z,382.302
2023-03-31T06:50:02.005Z,448.702
2023-03-31T06:55:02.066Z,505.13
2023-03-31T07:00:02.143Z,446.367
2023-03-31T07:05:02.003Z,614.226
2023-03-31T07:10:02.019Z,708.446
2023-03-31T07:15:02.047Z,598.21
2023-03-31T07:20:02.111Z,551.0260000000001
2023-03-31T07:25:02.115Z,627.3870000000001
2023-03-31T07:30:02.194Z,704.975
2023-03-31T07:35:02.052Z,683
2023-03-31T07:40:02.056Z,617.4300000000001
2023-03-31T07:45:02.103Z,645.641
2023-03-31T07:50:02.100Z,644.616
2023-03-31T07:55:02.115Z,534.452
2023-03-31T08:00:02.052Z,478.175
2023-03-31T08:05:02.078Z,552.216
2023-03-31T08:10:02.302Z,695.242
2023-03-31T08:15:02.292Z,745.166
2023-03-31T08:20:06.208Z,699.942
2023-03-31T08:25:02.292Z,970.721
2023-03-31T08:30:02.276Z,970.586
2023-03-31T08:35:02.280Z,773.487
2023-03-31T08:40:02.238Z,899.735
2023-03-31T08:45:02.283Z,1257.101
2023-03-31T08:50:02.296Z,1159.651
2023-03-31T08:55:02.375Z,838.84
2023-03-31T09:00:02.286Z,725.392
2023-03-31T09:05:02.318Z,1060.512
2023-03-31T09:10:02.279Z,1558.763
2023-03-31T09:15:02.275Z,890.861
2023-03-31T09:20:02.254Z,1012.259
2023-03-31T09:25:02.212Z,1073.462
2023-03-31T09:30:02.197Z,954.101
2023-03-31T09:35:02.159Z,1030.905
2023-03-31T09:40:02.222Z,1708.806
2023-03-31T09:45:02.246Z,2262.122
2023-03-31T09:50:02.226Z,2258.616
2023-03-31T09:55:02.273Z,1856.796
2023-03-31T10:00:02.233Z,3216.764
2023-03-31T10:05:02.139Z,3795.743
2023-03-31T10:10:02.198Z,2396.455
2023-03-31T10:15:02.427Z,1662.556
2023-03-31T10:20:02.228Z,2759.881
2023-03-31T10:25:02.236Z,4791.479
2023-03-31T10:30:02.217Z,2930.257
2023-03-31T10:35:02.254Z,3426.097
2023-03-31T10:40:02.332Z,2151.921
2023-03-31T10:45:02.175Z,2764.8920000000003
2023-03-31T10:50:02.246Z,2930.9230000000002
2023-03-31T10:55:02.189Z,3104.539
2023-03-31T11:00:02.231Z,3082.525
2023-03-31T11:05:02.298Z,2388.5660000000003
2023-03-31T11:10:02.348Z,1353.753
2023-03-31T11:15:02.265Z,1250.23
2023-03-31T11:20:02.272Z,1482.029
2023-03-31T11:25:02.292Z,1785.674
2023-03-31T11:30:02.288Z,1407.179
2023-03-31T11:35:02.263Z,872.379
2023-03-31T11:40:02.275Z,1040.397
2023-03-31T11:45:02.238Z,1276.933
2023-03-31T11:50:02.255Z,1593.615
2023-03-31T11:55:03.175Z,2127.41
2023-03-31T12:00:02.270Z,2384.009
2023-03-31T12:05:02.319Z,2367.997
2023-03-31T12:10:02.360Z,2661.613
2023-03-31T12:15:02.346Z,2633.771
2023-03-31T12:20:02.329Z,2224.5190000000002
2023-03-31T12:25:02.376Z,1977.8410000000001
2023-03-31T12:30:02.297Z,1799.7350000000001
2023-03-31T12:35:02.351Z,1904.752
2023-03-31T12:40:02.329Z,1791.9180000000001
2023-03-31T12:45:02.346Z,1633.089
2023-03-31T12:50:02.353Z,1694.339
2023-03-31T12:55:02.340Z,2018.422
2023-03-31T13:00:02.330Z,2062.1730000000002
2023-03-31T13:05:02.388Z,1817.796
2023-03-31T13:10:02.423Z,1601.194
2023-03-31T13:15:02.385Z,1581.116
2023-03-31T13:20:02.383Z,1398.875
2023-03-31T13:25:02.469Z,1437.672
2023-03-31T13:30:02.349Z,1164.405
2023-03-31T13:35:02.328Z,703.1510000000001
2023-03-31T13:40:02.449Z,544.341
2023-03-31T13:45:02.437Z,569.598
2023-03-31T13:50:02.389Z,718.707
2023-03-31T13:55:02.412Z,743.744
2023-03-31T14:00:02.404Z,912.969
2023-03-31T14:05:02.422Z,1121.265
2023-03-31T14:10:02.420Z,1476.075
2023-03-31T14:15:02.427Z,1131.161
2023-03-31T14:20:02.417Z,567.874
2023-03-31T14:25:02.465Z,146.631
2023-03-31T14:30:02.369Z,185.217
2023-03-31T14:35:16.648Z,333.168
2023-03-31T14:40:02.552Z,467.423
2023-03-31T14:45:02.591Z,551.79
2023-03-31T14:50:02.659Z,655.6560000000001
2023-03-31T14:55:02.706Z,658.024
2023-03-31T15:00:02.612Z,784.061
2023-03-31T15:05:02.613Z,601.986
2023-03-31T15:10:02.625Z,470.922
2023-03-31T15:15:02.584Z,365.956
2023-03-31T15:20:02.575Z,351.273
2023-03-31T15:25:02.537Z,296.813
2023-03-31T15:30:02.478Z,243.174
2023-03-31T15:35:07.909Z,181.721
2023-03-31T15:40:02.423Z,120.662
2023-03-31T15:45:02.508Z,78.992
2023-03-31T15:50:02.548Z,57.001
2023-03-31T15:55:02.527Z,35.886
2023-03-31T16:00:02.616Z,41.941
2023-03-31T16:05:02.984Z,34.602000000000004
2023-03-31T16:10:02.586Z,41.642
2023-03-31T16:15:02.572Z,42.691
2023-03-31T16:20:02.680Z,66.178
2023-03-31T16:25:02.563Z,63.154
2023-03-31T16:30:02.668Z,73.63
2023-03-31T16:35:00.892Z,82.427
2023-03-31T16:40:00.923Z,104.647
2023-03-31T16:45:13.468Z,76.631
2023-03-31T16:50:00.936Z,49.251
2023-03-31T16:55:00.870Z,29.129
2023-03-31T17:00:00.846Z,31.969
2023-03-31T17:05:12.337Z,29.739
2023-03-31T17:10:00.955Z,36.33
2023-03-31T17:15:00.766Z,26.362000000000002
2023-03-31T17:20:01.037Z,17.72
2023-03-31T17:25:01.041Z,12.18
2023-03-31T17:30:00.804Z,0
2023-03-31T17:35:00.804Z,0.10200000000000001
2023-03-31T17:40:00.813Z,0.052000000000000005
2023-03-31T17:45:00.853Z,0.096
2023-03-31T17:50:00.869Z,0.061
2023-03-31T17:55:00.837Z,0.056
2023-03-31T18:00:00.887Z,0.051000000000000004
2023-03-31T18:05:00.953Z,0.013000000000000001
2023-03-31T18:10:00.801Z,0.009000000000000001
2023-03-31T18:15:00.884Z,0
2023-03-31T18:20:00.849Z,0.025
2023-03-31T18:25:00.985Z,0.043000000000000003
2023-03-31T18:30:00.881Z,0.021
2023-03-31T18:35:00.887Z,0.006
2023-03-31T18:40:00.848Z,0
2023-03-31T18:45:01.019Z,0
2023-03-31T18:50:01.136Z,0.003
2023-03-31T18:55:01.188Z,0.007
2023-03-31T19:00:01.136Z,0.024
2023-03-31T19:05:01.000Z,0.002
2023-03-31T19:10:01.136Z,0
2023-03-31T19:15:01.122Z,0.02
2023-03-31T19:20:00.989Z,0.019
2023-03-31T19:25:01.086Z,0.002
2023-03-31T19:30:01.059Z,0
2023-03-31T19:35:00.990Z,0.011
2023-03-31T19:40:00.949Z,0.02
2023-03-31T19:45:01.071Z,0.017
2023-03-31T19:50:00.924Z,0.012
2023-03-31T19:55:00.906Z,0.041
2023-03-31T20:00:02.161Z,0.062
2023-03-31T20:05:00.972Z,0.05
2023-03-31T20:10:01.000Z,0.06
2023-03-31T20:15:00.956Z,0.094
2023-03-31T20:20:00.973Z,0.01
2023-03-31T20:25:01.041Z,0
2023-03-31T20:30:01.002Z,0
2023-03-31T20:35:00.966Z,0
2023-03-31T20:40:01.188Z,0
2023-03-31T20:45:00.931Z,0
2023-03-31T20:50:01.115Z,0.116
2023-03-31T20:55:01.008Z,0.14
2023-03-31T21:00:01.008Z,0.101
2023-03-31T21:05:01.049Z,0.088
2023-03-31T21:10:00.977Z,0.074
2023-03-31T21:15:00.951Z,0.084
2023-03-31T21:20:01.040Z,0.181
2023-03-31T21:25:01.053Z,0.28700000000000003
2023-03-31T21:30:01.043Z,0.176
2023-03-31T21:35:01.036Z,0.13
2023-03-31T21:40:01.060Z,0.009000000000000001
2023-03-31T21:45:01.012Z,0
2023-03-31T21:50:01.096Z,0.008
2023-03-31T21:55:01.024Z,0.015
2023-03-31T22:00:01.040Z,0
2023-03-31T22:05:01.059Z,0.06
2023-03-31T22:10:01.036Z,0.1
2023-03-31T22:15:01.058Z,0.127
2023-03-31T22:20:01.022Z,0.149
2023-03-31T22:25:01.089Z,0.148
2023-03-31T22:30:01.035Z,0.113
2023-03-31T22:35:01.060Z,0.091
2023-03-31T22:40:01.015Z,0.091
2023-03-31T22:45:01.023Z,0.083
2023-03-31T22:50:01.099Z,0.083
2023-03-31T22:55:01.108Z,0.084
2023-03-31T23:00:01.108Z,0.036000000000000004
2023-03-31T23:05:01.101Z,0
2023-03-31T23:10:01.208Z,0
2023-03-31T23:15:01.387Z,0
2023-03-31T23:20:01.098Z,0.311
2023-03-31T23:25:01.166Z,0.47900000000000004
2023-03-31T23:30:01.067Z,0.439
2023-03-31T23:35:01.087Z,0.248
2023-03-31T23:40:01.206Z,0.109
2023-03-31T23:45:01.217Z,0.101
2023-03-31T23:50:01.156Z,0.137
2023-03-31T23:55:01.117Z,0.15
